Terminal Aerodrome Forecast
Issued by NWS Buffalo, NY

Current Version | Previous Version | Text Only | Print | Product List | Glossary On
Versions: 1 2 3 4 5 6 7 8 9 10 11 12 13 14 15 16 17 18 19 20 21 22 23 24
000
FTUS41 KBUF 010500
TAFART
TAF
KART 010528Z 0106/0206 06006KT 5SM BR SKC
     FM011200 06005KT P6SM BKN035
     FM011500 05006KT P6SM SCT035
     FM011700 04005KT P6SM SCT140
     FM020200 VRB03KT P6SM SCT040=

USA.gov is the U.S. government's official web portal to all federal, state and local government web resources and services.